createdAt,value
2019-03-24T05:42:09.681Z,6.77
2019-03-24T05:45:20.907Z,6.40
2019-03-24T05:48:23.238Z,6.13
2019-03-24T05:50:55.484Z,7.33
2019-03-24T05:53:28.491Z,7.43
2019-03-24T05:55:59.024Z,7.07
2019-03-24T05:59:16.451Z,7.77
2019-03-24T06:02:25.327Z,6.87
2019-03-24T06:04:58.353Z,7.70
2019-03-24T06:07:42.212Z,7.17
2019-03-24T06:10:12.054Z,7.10
2019-03-24T06:12:42.231Z,7.73
2019-03-24T06:15:11.923Z,7.83
2019-03-24T06:17:47.827Z,6.60
2019-03-24T06:20:17.424Z,7.67
2019-03-24T06:22:48.823Z,7.87
2019-03-24T06:25:22.143Z,6.97
2019-03-24T06:27:54.044Z,7.53
2019-03-24T06:30:24.156Z,7.53
2019-03-24T06:32:57.242Z,7.20
2019-03-24T06:35:26.833Z,7.77
2019-03-24T06:38:05.501Z,7.03
2019-03-24T06:40:39.359Z,7.00
2019-03-24T06:43:09.287Z,7.67
2019-03-24T06:46:00.961Z,7.57
2019-03-24T06:48:37.362Z,8.43
2019-03-24T06:51:09.326Z,7.53
2019-03-24T06:53:39.952Z,8.00
2019-03-24T06:59:40.243Z,7.30
2019-03-24T07:09:21.693Z,8.47
2019-03-24T07:15:23.385Z,7.33
2019-03-24T07:17:56.679Z,8.10
2019-03-24T07:20:59.144Z,8.67
2019-03-24T07:23:28.533Z,8.03
2019-03-24T07:26:26.824Z,7.07
2019-03-24T07:32:14.205Z,6.67
2019-03-24T07:37:01.990Z,6.93
2019-03-24T07:42:13.011Z,6.73
2019-03-24T07:44:53.572Z,5.17
2019-03-24T07:47:25.300Z,5.43
2019-03-24T07:49:55.342Z,5.50
2019-03-24T07:52:27.917Z,5.27
2019-03-24T07:55:38.392Z,4.30
2019-03-24T07:58:08.212Z,5.03
2019-03-24T08:00:41.256Z,4.60
2019-03-24T08:03:13.031Z,5.37
2019-03-24T08:05:42.012Z,4.67
2019-03-24T08:08:11.044Z,4.30
2019-03-24T08:10:53.635Z,5.30
2019-03-24T08:13:22.782Z,4.77
2019-03-24T08:15:51.907Z,4.07
2019-03-24T08:18:29.613Z,4.53
2019-03-24T08:20:52.097Z,4.27
2019-03-24T08:23:21.614Z,5.07
2019-03-24T08:25:50.643Z,4.50
2019-03-24T08:28:23.239Z,4.50
2019-03-24T08:30:55.489Z,4.47
2019-03-24T08:33:35.749Z,4.83
2019-03-24T08:36:09.651Z,4.67
2019-03-24T08:38:57.829Z,4.43
2019-03-24T08:41:28.894Z,5.67
2019-03-24T08:44:08.610Z,4.80
2019-03-24T08:46:40.948Z,4.00
2019-03-24T08:49:10.777Z,4.30
2019-03-24T08:51:39.754Z,4.00
2019-03-24T09:02:12.324Z,3.70
2019-03-24T09:07:34.333Z,4.07
2019-03-24T09:10:13.777Z,4.40
2019-03-24T09:12:57.639Z,4.60
2019-03-24T09:15:46.378Z,4.20
2019-03-24T09:18:17.713Z,4.00
2019-03-24T09:20:52.506Z,4.43
2019-03-24T09:23:21.628Z,3.60
2019-03-24T09:25:54.528Z,4.27
2019-03-24T09:28:26.771Z,4.50
2019-03-24T09:30:59.151Z,3.47
2019-03-24T09:33:28.509Z,3.93
2019-03-24T09:35:57.562Z,3.97
2019-03-24T09:38:26.542Z,3.47
2019-03-24T09:40:59.572Z,3.97
2019-03-24T09:43:30.686Z,4.50
2019-03-24T09:45:59.913Z,3.60
2019-03-24T09:48:28.884Z,3.43
2019-03-24T09:50:58.823Z,3.60
2019-03-24T09:53:28.302Z,4.53
2019-03-24T09:55:57.575Z,4.77
2019-03-24T09:58:26.701Z,4.63
2019-03-24T10:00:57.065Z,4.77
2019-03-24T10:03:29.521Z,4.40
2019-03-24T10:05:59.522Z,4.13
2019-03-24T10:08:29.301Z,3.80
2019-03-24T10:11:08.363Z,3.80
2019-03-24T10:13:38.310Z,5.30
2019-03-24T10:16:09.770Z,4.67
2019-03-24T10:18:39.554Z,3.93
2019-03-24T10:21:09.037Z,4.17
2019-03-24T10:23:41.447Z,3.83
2019-03-24T10:26:26.973Z,4.03
2019-03-24T10:29:05.757Z,3.77
2019-03-24T10:31:52.047Z,3.87
2019-03-24T10:35:26.136Z,3.70
2019-03-24T10:38:15.905Z,3.10
2019-03-24T10:40:56.485Z,3.20
2019-03-24T10:43:48.501Z,2.97
2019-03-24T10:47:39.289Z,3.13
2019-03-24T10:49:40.986Z,3.03
2019-03-24T10:52:24.662Z,3.10
2019-03-24T10:55:19.558Z,3.80
2019-03-24T10:58:00.463Z,3.37
2019-03-24T11:00:46.794Z,3.33
2019-03-24T11:03:16.009Z,3.03
2019-03-24T11:05:45.090Z,3.03
2019-03-24T11:08:14.036Z,3.50
2019-03-24T11:10:43.317Z,3.33
2019-03-24T11:13:12.362Z,3.70
2019-03-24T11:15:41.142Z,3.77
2019-03-24T11:18:11.929Z,3.23
2019-03-24T11:20:43.949Z,2.60
2019-03-24T11:23:15.666Z,2.93
2019-03-24T11:25:45.233Z,2.60
2019-03-24T11:28:19.133Z,3.17
2019-03-24T11:30:50.005Z,2.30
2019-03-24T11:33:19.504Z,4.00
2019-03-24T11:36:13.734Z,2.93
2019-03-24T11:38:32.595Z,3.37
2019-03-24T11:41:01.779Z,2.53
2019-03-24T11:43:31.484Z,3.20
2019-03-24T11:46:01.870Z,3.13
2019-03-24T11:48:30.993Z,3.17
2019-03-24T11:51:03.792Z,2.90
2019-03-24T11:53:41.615Z,2.60
2019-03-24T11:56:14.594Z,2.70
2019-03-24T11:58:45.525Z,2.37
2019-03-24T12:09:07.702Z,3.03
2019-03-24T12:11:29.958Z,2.27
2019-03-24T12:17:50.454Z,2.80
2019-03-24T12:20:38.905Z,2.70
2019-03-24T12:27:18.515Z,2.17
2019-03-24T12:37:35.960Z,2.30
2019-03-24T13:00:56.160Z,2.50
2019-03-24T13:03:35.983Z,1.97
2019-03-24T13:06:10.729Z,2.40
2019-03-24T13:08:55.395Z,2.30
2019-03-24T13:11:55.408Z,2.37
2019-03-24T13:14:30.741Z,2.07
2019-03-24T13:17:00.422Z,2.03
2019-03-24T13:20:32.915Z,2.40
2019-03-24T14:37:28.963Z,2.73
2019-03-24T14:43:11.758Z,2.67
2019-03-24T14:45:40.733Z,2.30
2019-03-24T14:48:09.568Z,2.60
2019-03-24T14:50:38.580Z,2.50
2019-03-24T14:53:07.483Z,2.73
2019-03-24T14:55:36.683Z,2.50
2019-03-24T14:58:05.750Z,2.43
2019-03-24T15:00:35.699Z,2.00
2019-03-24T15:03:04.710Z,2.20
2019-03-24T15:05:33.586Z,2.63
2019-03-24T15:08:02.529Z,2.23
2019-03-24T15:10:31.422Z,2.30
2019-03-24T15:13:00.370Z,2.53
2019-03-24T15:15:29.428Z,2.27
2019-03-24T15:17:58.170Z,2.20
2019-03-24T15:20:27.029Z,2.10
2019-03-24T15:22:55.973Z,1.70
2019-03-24T15:25:24.937Z,1.83
2019-03-24T15:27:53.813Z,2.20
2019-03-24T15:30:22.751Z,2.20
2019-03-24T15:32:53.450Z,2.00
2019-03-24T15:35:22.088Z,1.97
2019-03-24T15:37:51.063Z,2.17
2019-03-24T15:40:20.168Z,2.70
2019-03-24T15:43:07.472Z,2.33
2019-03-24T15:45:31.559Z,2.23
2019-03-24T15:48:01.510Z,1.70
2019-03-24T15:50:33.674Z,2.10
2019-03-24T15:53:30.335Z,2.50
2019-03-24T15:56:14.286Z,2.50
2019-03-24T15:58:48.454Z,2.00
2019-03-24T16:01:38.873Z,2.37
2019-03-24T16:04:25.214Z,2.30
2019-03-24T16:07:00.208Z,2.60
2019-03-24T16:09:30.982Z,2.57
2019-03-24T16:11:59.979Z,2.07
2019-03-24T16:14:29.948Z,2.00
2019-03-24T16:17:03.243Z,2.13
2019-03-24T16:19:49.427Z,2.27
2019-03-24T16:22:24.867Z,1.90
2019-03-24T16:25:16.016Z,2.60
2019-03-24T16:27:51.661Z,1.97
2019-03-24T16:30:31.638Z,2.30
2019-03-24T16:33:30.002Z,2.50
2019-03-24T16:36:12.732Z,1.73
2019-03-24T16:39:03.871Z,2.57
2019-03-24T16:41:47.098Z,2.83
2019-03-24T16:44:22.333Z,1.83
2019-03-24T16:46:57.470Z,2.00
2019-03-24T16:49:56.048Z,2.47
2019-03-24T17:05:11.210Z,2.20
2019-03-24T17:07:40.596Z,2.43
2019-03-24T17:10:09.637Z,2.27
2019-03-24T17:12:38.931Z,2.30
2019-03-24T17:15:10.994Z,2.10
2019-03-24T17:17:43.430Z,1.80
2019-03-24T17:20:12.543Z,2.43
2019-03-24T17:22:44.764Z,1.97
2019-03-24T17:25:13.820Z,2.23
2019-03-24T17:27:42.933Z,2.50
2019-03-24T17:30:12.620Z,3.07
2019-03-24T17:32:44.835Z,5.50
2019-03-24T17:35:13.954Z,3.07
2019-03-24T17:37:43.915Z,3.67
2019-03-24T17:40:12.704Z,2.60
2019-03-24T17:42:41.887Z,3.80
2019-03-24T17:45:10.790Z,3.30
2019-03-24T17:47:41.094Z,1.90
2019-03-24T17:50:12.015Z,2.10
2019-03-24T17:52:40.605Z,1.50
2019-03-24T17:55:09.423Z,1.70
2019-03-24T17:57:38.485Z,1.70
2019-03-24T18:00:09.099Z,2.23
2019-03-24T18:02:38.374Z,2.10
2019-03-24T18:05:07.334Z,1.83
2019-03-24T18:07:36.148Z,2.13
2019-03-24T18:10:05.329Z,1.90
2019-03-24T18:12:34.299Z,2.23
2019-03-24T18:15:03.340Z,2.10
2019-03-24T18:17:32.290Z,2.03
2019-03-24T18:20:01.296Z,2.33
2019-03-24T18:22:30.242Z,2.23
2019-03-24T18:24:59.275Z,2.60
2019-03-24T18:27:28.591Z,2.30
2019-03-24T18:29:59.031Z,2.30
2019-03-24T18:32:29.912Z,2.27
2019-03-24T18:34:58.976Z,2.10
2019-03-24T18:37:31.408Z,2.40
2019-03-24T18:40:03.759Z,2.10
2019-03-24T18:42:38.059Z,2.20
2019-03-24T18:45:07.812Z,2.60
2019-03-24T18:47:36.684Z,2.40
2019-03-24T18:50:05.761Z,2.30
2019-03-24T18:52:35.135Z,2.63
2019-03-24T18:55:04.118Z,2.90
2019-03-24T18:57:41.156Z,2.60
2019-03-24T19:00:10.055Z,2.40
2019-03-24T19:02:38.940Z,2.80
2019-03-24T19:05:08.693Z,3.00
2019-03-24T19:07:37.616Z,2.70
2019-03-24T19:10:06.461Z,2.67
2019-03-24T19:12:35.448Z,3.07
2019-03-24T19:15:04.459Z,2.93
2019-03-24T19:17:33.526Z,2.40
2019-03-24T19:20:02.598Z,2.30
2019-03-24T19:22:33.790Z,3.10
2019-03-24T19:25:01.830Z,2.73
2019-03-24T19:27:30.820Z,2.40
2019-03-24T19:29:59.586Z,2.70
2019-03-24T19:32:28.378Z,2.83
2019-03-24T19:34:57.185Z,2.27
2019-03-24T19:37:26.192Z,2.27
2019-03-24T19:39:55.045Z,2.77
2019-03-24T19:42:23.858Z,2.30
2019-03-24T19:44:52.581Z,2.60
2019-03-24T19:47:21.389Z,2.37
2019-03-24T19:50:00.330Z,2.80
2019-03-24T19:52:44.703Z,2.70
2019-03-24T19:55:08.591Z,3.00
2019-03-24T19:57:37.309Z,2.50
2019-03-24T20:00:06.578Z,3.00
2019-03-24T20:02:35.219Z,2.43
2019-03-24T20:05:04.020Z,4.13
2019-03-24T20:07:32.839Z,3.87
2019-03-24T20:10:01.547Z,4.00
2019-03-24T20:12:30.215Z,4.00
2019-03-24T20:14:59.037Z,4.80
2019-03-24T20:17:27.947Z,3.67
2019-03-24T20:19:56.712Z,3.93
2019-03-24T20:22:25.344Z,4.70
2019-03-24T20:24:54.077Z,5.37
2019-03-24T20:27:22.895Z,5.77
2019-03-24T20:29:51.956Z,5.80
2019-03-24T20:32:20.977Z,5.23
2019-03-24T20:34:49.726Z,4.80
2019-03-24T20:37:21.714Z,3.77
2019-03-24T20:39:50.481Z,3.53
2019-03-24T20:42:19.215Z,2.90
2019-03-24T20:44:48.039Z,2.57
2019-03-24T20:47:16.773Z,2.60
2019-03-24T20:49:45.535Z,2.77
2019-03-24T20:52:14.324Z,3.00
2019-03-24T20:54:43.360Z,2.87
2019-03-24T20:57:12.072Z,2.73
2019-03-24T20:59:40.845Z,2.67
2019-03-24T21:02:09.760Z,3.13
2019-03-24T21:04:38.514Z,3.20
2019-03-24T21:07:08.447Z,2.73
2019-03-24T21:09:37.371Z,3.03
2019-03-24T21:12:06.054Z,3.27
2019-03-24T21:14:34.827Z,2.70
2019-03-24T21:17:06.350Z,2.57
2019-03-24T21:19:35.058Z,3.17
2019-03-24T21:22:04.073Z,2.80
2019-03-24T21:24:32.996Z,3.27
2019-03-24T21:27:01.808Z,2.60
2019-03-24T21:29:30.623Z,2.13
2019-03-24T21:31:59.411Z,2.30
2019-03-24T21:34:28.177Z,3.07
2019-03-24T21:36:57.593Z,3.70
2019-03-24T21:39:26.426Z,3.33
2019-03-24T21:41:55.264Z,3.50
2019-03-24T21:44:24.131Z,2.83
2019-03-24T21:46:52.897Z,3.23
2019-03-24T21:49:21.634Z,2.83
2019-03-24T21:51:50.471Z,2.17
2019-03-24T21:54:21.871Z,3.23
2019-03-24T21:56:50.766Z,3.00
2019-03-24T21:59:19.581Z,2.60
2019-03-24T22:01:48.440Z,3.33
2019-03-24T22:04:17.220Z,3.50
2019-03-24T22:06:46.066Z,3.03
2019-03-24T22:09:14.768Z,3.10
2019-03-24T22:11:43.542Z,2.90
2019-03-24T22:14:12.284Z,2.97
2019-03-24T22:16:41.139Z,2.77
2019-03-24T22:19:09.907Z,3.23
2019-03-24T22:21:38.624Z,3.33
2019-03-24T22:24:07.506Z,3.40
2019-03-24T22:26:36.271Z,2.73
2019-03-24T22:29:05.347Z,3.10
2019-03-24T22:31:34.395Z,3.53
2019-03-24T22:34:03.501Z,3.20
2019-03-24T22:36:34.973Z,3.60
2019-03-24T22:39:04.451Z,3.73
2019-03-24T22:41:33.218Z,4.13
2019-03-24T22:44:02.310Z,4.90
2019-03-24T22:46:31.616Z,5.63
2019-03-24T22:49:04.952Z,5.73
2019-03-24T22:51:34.066Z,4.90
2019-03-24T22:54:03.667Z,4.63
2019-03-24T22:56:32.532Z,5.20
2019-03-24T22:59:04.544Z,4.40
2019-03-24T23:01:33.786Z,4.90
2019-03-24T23:04:02.648Z,5.07
2019-03-24T23:06:31.625Z,4.87
2019-03-24T23:09:00.987Z,4.70
2019-03-24T23:11:30.222Z,4.20
2019-03-24T23:13:59.140Z,4.40
2019-03-24T23:16:28.026Z,4.23
2019-03-24T23:18:56.955Z,4.83
2019-03-24T23:21:26.290Z,3.57
2019-03-24T23:23:55.354Z,4.03
2019-03-24T23:26:24.568Z,4.17
2019-03-24T23:28:57.168Z,3.23
2019-03-24T23:31:29.089Z,3.57
2019-03-24T23:34:01.521Z,3.40
2019-03-24T23:36:31.478Z,3.73
2019-03-24T23:39:00.752Z,3.30
2019-03-24T23:41:30.076Z,2.80
2019-03-24T23:43:59.185Z,3.63
2019-03-24T23:46:28.107Z,3.27
2019-03-24T23:48:57.310Z,3.67
2019-03-24T23:51:26.131Z,3.77
2019-03-24T23:53:58.493Z,3.10
2019-03-24T23:56:27.575Z,3.20
2019-03-24T23:58:59.119Z,3.37
